createdAt,value
2023-07-10T00:01:00.419Z,22.51
2023-07-10T00:02:02.179Z,22.52
2023-07-10T00:03:05.829Z,22.56
2023-07-10T00:04:15.559Z,22.57
2023-07-10T00:05:21.522Z,22.50
2023-07-10T00:06:23.607Z,22.47
2023-07-10T00:07:25.219Z,22.49
2023-07-10T00:08:27.427Z,22.51
2023-07-10T00:09:29.048Z,22.52
2023-07-10T00:10:31.429Z,22.48
2023-07-10T00:11:33.455Z,22.44
2023-07-10T00:12:35.078Z,22.44
2023-07-10T00:13:36.702Z,22.44
2023-07-10T00:14:38.396Z,22.47
2023-07-10T00:15:41.111Z,22.49
2023-07-10T00:16:44.196Z,22.51
2023-07-10T00:17:47.043Z,22.50
2023-07-10T00:18:49.437Z,22.50
2023-07-10T00:19:51.120Z,22.49
2023-07-10T00:20:52.816Z,22.44
2023-07-10T00:21:54.401Z,22.44
2023-07-10T00:22:56.001Z,22.40
2023-07-10T00:23:57.624Z,22.37
2023-07-10T00:24:59.210Z,22.36
2023-07-10T00:26:00.961Z,22.25
2023-07-10T00:27:03.035Z,22.14
2023-07-10T00:28:13.784Z,22.14
2023-07-10T00:29:21.605Z,22.15
2023-07-10T00:30:26.096Z,22.13
2023-07-10T00:31:27.815Z,22.10
2023-07-10T00:32:30.778Z,22.09
2023-07-10T00:33:32.437Z,22.02
2023-07-10T00:34:34.173Z,21.94
2023-07-10T00:35:35.870Z,21.87
2023-07-10T00:36:38.892Z,21.86
2023-07-10T00:37:40.496Z,21.89
2023-07-10T00:38:42.923Z,21.88
2023-07-10T00:39:44.619Z,21.87
2023-07-10T00:40:47.050Z,21.83
2023-07-10T00:41:53.691Z,21.79
2023-07-10T00:43:02.462Z,21.75
2023-07-10T00:44:05.864Z,21.66
2023-07-10T00:45:13.254Z,21.60
2023-07-10T00:46:20.415Z,21.61
2023-07-10T00:47:26.675Z,21.41
2023-07-10T00:48:37.359Z,20.95
2023-07-10T00:49:45.017Z,20.85
2023-07-10T00:50:48.467Z,20.71
2023-07-10T00:51:59.273Z,20.72
2023-07-10T00:53:02.951Z,20.80
2023-07-10T00:54:05.349Z,20.87
2023-07-10T00:55:20.084Z,20.92
2023-07-10T00:56:22.821Z,20.81
2023-07-10T00:57:28.612Z,20.90
2023-07-10T00:58:35.161Z,21.05
2023-07-10T00:59:40.056Z,21.11
2023-07-10T01:01:00.247Z,21.09
2023-07-10T01:02:20.597Z,21.06
2023-07-10T01:03:22.230Z,21.10
2023-07-10T01:04:25.149Z,21.13
2023-07-10T01:05:30.000Z,20.89
2023-07-10T01:06:33.886Z,20.86
2023-07-10T01:07:40.869Z,20.57
2023-07-10T01:08:47.539Z,20.29
2023-07-10T01:09:53.056Z,20.12
2023-07-10T01:10:54.800Z,20.25
2023-07-10T01:11:56.435Z,20.28
2023-07-10T01:12:58.001Z,20.46
2023-07-10T01:14:01.695Z,20.61
2023-07-10T01:15:07.590Z,20.85
2023-07-10T01:16:09.859Z,20.88
2023-07-10T01:17:11.913Z,20.72
2023-07-10T01:18:13.643Z,20.63
2023-07-10T01:19:24.085Z,20.71
2023-07-10T01:20:32.892Z,20.74
2023-07-10T01:21:39.618Z,20.78
2023-07-10T01:22:41.313Z,21.03
2023-07-10T01:23:43.025Z,21.07
2023-07-10T01:24:44.817Z,21.27
2023-07-10T01:25:52.401Z,21.27
2023-07-10T01:26:54.974Z,21.41
2023-07-10T01:27:56.612Z,21.26
2023-07-10T01:28:59.559Z,21.02
2023-07-10T01:30:05.187Z,21.04
2023-07-10T01:31:09.764Z,21.30
2023-07-10T01:32:14.308Z,21.54
2023-07-10T01:33:18.362Z,21.78
2023-07-10T01:34:23.609Z,21.88
2023-07-10T01:35:29.092Z,21.93
2023-07-10T01:36:35.698Z,22.01
2023-07-10T01:37:38.716Z,22.16
2023-07-10T01:38:45.268Z,22.27
2023-07-10T01:39:49.135Z,22.40
2023-07-10T01:40:54.538Z,22.44
2023-07-10T01:41:56.114Z,22.50
2023-07-10T01:42:59.229Z,22.57
2023-07-10T01:44:01.091Z,22.62
2023-07-10T01:45:09.270Z,22.64
2023-07-10T01:46:18.961Z,22.66
2023-07-10T01:47:21.026Z,22.65
2023-07-10T01:48:28.300Z,22.65
2023-07-10T01:49:31.962Z,22.66
2023-07-10T01:50:33.469Z,22.69
2023-07-10T01:51:36.125Z,22.60
2023-07-10T01:52:39.148Z,22.53
2023-07-10T01:53:44.358Z,22.53
2023-07-10T01:54:45.949Z,22.53
2023-07-10T01:55:48.431Z,22.52
2023-07-10T01:56:50.465Z,22.50
2023-07-10T01:57:52.070Z,22.51
2023-07-10T01:58:53.687Z,22.49
2023-07-10T01:59:55.302Z,22.47
2023-07-10T02:00:57.218Z,22.44
2023-07-10T02:01:59.895Z,22.44
2023-07-10T02:03:01.674Z,22.38
2023-07-10T02:04:04.295Z,22.13
2023-07-10T02:05:09.322Z,21.85
2023-07-10T02:06:11.457Z,21.82
2023-07-10T02:07:13.103Z,21.86
2023-07-10T02:08:16.377Z,21.90
2023-07-10T02:09:18.076Z,21.92
2023-07-10T02:10:22.494Z,21.89
2023-07-10T02:11:28.321Z,21.88
2023-07-10T02:12:30.019Z,21.93
2023-07-10T02:13:31.830Z,21.96
2023-07-10T02:14:33.730Z,22.00
2023-07-10T02:15:35.358Z,22.06
2023-07-10T02:16:37.176Z,22.09
2023-07-10T02:17:39.260Z,22.14
2023-07-10T02:18:41.628Z,22.18
2023-07-10T02:19:43.262Z,22.24
2023-07-10T02:20:44.851Z,22.26
2023-07-10T02:21:47.246Z,22.27
2023-07-10T02:22:49.219Z,22.30
2023-07-10T02:23:52.194Z,22.27
2023-07-10T02:24:53.797Z,21.99
2023-07-10T02:25:55.552Z,21.67
2023-07-10T02:26:57.279Z,21.65
2023-07-10T02:27:58.880Z,21.76
2023-07-10T02:29:00.890Z,21.89
2023-07-10T02:30:02.678Z,21.99
2023-07-10T02:31:05.245Z,22.05
2023-07-10T02:32:08.217Z,22.09
2023-07-10T02:33:09.921Z,22.17
2023-07-10T02:34:11.496Z,22.21
2023-07-10T02:35:13.128Z,22.27
2023-07-10T02:36:15.607Z,22.33
2023-07-10T02:37:17.340Z,22.33
2023-07-10T02:38:19.054Z,22.37
2023-07-10T02:39:22.029Z,22.42
2023-07-10T02:40:23.742Z,22.46
2023-07-10T02:41:25.626Z,22.52
2023-07-10T02:42:29.800Z,22.57
2023-07-10T02:43:32.065Z,22.59
2023-07-10T02:44:33.928Z,22.60
2023-07-10T02:45:36.512Z,22.60
2023-07-10T02:46:38.212Z,22.64
2023-07-10T02:47:40.196Z,22.65
2023-07-10T02:48:41.831Z,22.63
2023-07-10T02:49:43.485Z,22.65
2023-07-10T02:50:45.165Z,22.66
2023-07-10T02:51:46.801Z,22.67
2023-07-10T02:52:48.406Z,22.67
2023-07-10T02:53:52.201Z,22.66
2023-07-10T02:54:55.188Z,22.62
2023-07-10T02:55:56.830Z,22.61
2023-07-10T02:56:58.497Z,22.64
2023-07-10T02:58:00.936Z,22.64
2023-07-10T02:59:02.728Z,22.66
2023-07-10T03:00:06.095Z,22.67
2023-07-10T03:01:07.785Z,22.70
2023-07-10T03:02:09.479Z,22.73
2023-07-10T03:03:11.102Z,22.76
2023-07-10T03:04:15.113Z,22.75
2023-07-10T03:05:16.876Z,22.77
2023-07-10T03:06:18.579Z,22.75
2023-07-10T03:07:20.190Z,22.77
2023-07-10T03:08:21.915Z,22.80
2023-07-10T03:09:23.581Z,22.81
2023-07-10T03:10:26.612Z,22.81
2023-07-10T03:11:28.218Z,22.79
2023-07-10T03:12:30.009Z,22.76
2023-07-10T03:13:31.875Z,22.78
2023-07-10T03:14:33.671Z,22.79
2023-07-10T03:15:35.285Z,22.76
2023-07-10T03:16:37.066Z,22.77
2023-07-10T03:17:40.702Z,22.82
2023-07-10T03:18:42.432Z,22.76
2023-07-10T03:19:44.573Z,22.71
2023-07-10T03:20:46.195Z,22.65
2023-07-10T03:21:48.801Z,22.61
2023-07-10T03:22:50.817Z,22.58
2023-07-10T03:23:52.819Z,22.57
2023-07-10T03:24:54.847Z,22.50
2023-07-10T03:25:57.947Z,22.46
2023-07-10T03:26:59.599Z,22.37
2023-07-10T03:28:01.392Z,22.32
2023-07-10T03:29:06.167Z,22.26
2023-07-10T03:30:09.116Z,22.20
2023-07-10T03:31:10.819Z,22.11
2023-07-10T03:32:12.589Z,21.88
2023-07-10T03:33:15.701Z,21.70
2023-07-10T03:34:18.957Z,21.52
2023-07-10T03:35:25.412Z,21.61
2023-07-10T03:36:29.151Z,21.66
2023-07-10T03:37:30.753Z,21.74
2023-07-10T03:38:32.444Z,21.68
2023-07-10T03:39:34.082Z,21.64
2023-07-10T03:40:35.862Z,21.57
2023-07-10T03:41:38.985Z,21.52
2023-07-10T03:42:40.578Z,21.55
2023-07-10T03:43:42.305Z,21.61
2023-07-10T03:44:43.889Z,21.66
2023-07-10T03:45:45.553Z,21.67
2023-07-10T03:46:47.409Z,21.70
2023-07-10T03:47:49.158Z,21.67
2023-07-10T03:48:50.966Z,21.67
2023-07-10T03:49:52.582Z,21.71
2023-07-10T03:50:54.260Z,21.76
2023-07-10T03:51:55.966Z,21.76
2023-07-10T03:52:57.720Z,21.72
2023-07-10T03:53:59.485Z,21.73
2023-07-10T03:55:01.088Z,21.76
2023-07-10T03:56:03.578Z,21.77
2023-07-10T03:57:07.400Z,21.77
2023-07-10T03:58:19.362Z,21.76
2023-07-10T03:59:21.032Z,21.71
2023-07-10T04:00:22.787Z,21.70
2023-07-10T04:01:24.523Z,21.63
2023-07-10T04:02:26.292Z,21.57
2023-07-10T04:03:29.610Z,21.52
2023-07-10T04:04:31.276Z,21.52
2023-07-10T04:05:32.931Z,21.46
2023-07-10T04:06:34.751Z,21.47
2023-07-10T04:07:36.557Z,21.51
2023-07-10T04:08:40.521Z,21.48
2023-07-10T04:09:42.213Z,21.44
2023-07-10T04:10:49.408Z,21.51
2023-07-10T04:11:51.082Z,21.57
2023-07-10T04:12:54.075Z,21.60
2023-07-10T04:13:55.729Z,21.62
2023-07-10T04:14:57.508Z,21.64
2023-07-10T04:16:00.953Z,21.66
2023-07-10T04:17:02.757Z,21.70
2023-07-10T04:18:04.716Z,21.73
2023-07-10T04:19:06.376Z,21.76
2023-07-10T04:20:09.053Z,21.77
2023-07-10T04:21:16.628Z,21.76
2023-07-10T04:22:18.255Z,21.76
2023-07-10T04:23:19.911Z,21.77
2023-07-10T04:24:21.776Z,21.81
2023-07-10T04:25:23.493Z,21.85
2023-07-10T04:26:26.936Z,21.90
2023-07-10T04:27:28.654Z,21.88
2023-07-10T04:28:31.629Z,21.88
2023-07-10T04:29:33.237Z,21.92
2023-07-10T04:30:35.252Z,21.97
2023-07-10T04:31:37.137Z,22.02
2023-07-10T04:32:38.848Z,22.06
2023-07-10T04:33:40.702Z,22.10
2023-07-10T04:34:42.387Z,22.14
2023-07-10T04:35:44.955Z,22.21
2023-07-10T04:36:46.555Z,22.23
2023-07-10T04:37:48.236Z,22.21
2023-07-10T04:38:50.893Z,22.24
2023-07-10T04:39:53.416Z,22.27
2023-07-10T04:40:56.081Z,22.35
2023-07-10T04:41:57.738Z,22.41
2023-07-10T04:42:59.328Z,22.43
2023-07-10T04:44:02.270Z,22.47
2023-07-10T04:45:05.299Z,22.51
2023-07-10T04:46:09.910Z,22.48
2023-07-10T04:47:11.874Z,22.55
2023-07-10T04:48:13.834Z,22.62
2023-07-10T04:49:15.530Z,22.69
2023-07-10T04:50:19.325Z,22.74
2023-07-10T04:51:21.252Z,22.74
2023-07-10T04:52:22.954Z,22.77
2023-07-10T04:53:24.561Z,22.84
2023-07-10T04:54:26.196Z,22.87
2023-07-10T04:55:29.132Z,22.89
2023-07-10T04:56:30.847Z,22.78
2023-07-10T04:57:32.566Z,22.57
2023-07-10T04:58:49.050Z,21.97
2023-07-10T04:59:52.074Z,21.67
2023-07-10T05:00:56.712Z,21.33
2023-07-10T05:01:58.387Z,20.97
2023-07-10T05:03:00.153Z,20.87
2023-07-10T05:04:02.829Z,20.65
2023-07-10T05:05:05.288Z,20.68
2023-07-10T05:06:07.239Z,20.63
2023-07-10T05:07:10.996Z,20.47
2023-07-10T05:08:15.914Z,20.27
2023-07-10T05:09:17.621Z,20.35
2023-07-10T05:10:19.307Z,20.45
2023-07-10T05:11:23.312Z,20.81
2023-07-10T05:12:25.121Z,21.10
2023-07-10T05:13:28.832Z,21.34
2023-07-10T05:14:30.511Z,21.49
2023-07-10T05:15:33.414Z,21.63
2023-07-10T05:16:35.058Z,21.72
2023-07-10T05:17:36.707Z,21.81
2023-07-10T05:18:38.360Z,21.83
2023-07-10T05:19:40.092Z,21.75
2023-07-10T05:20:44.979Z,21.36
2023-07-10T05:21:46.659Z,20.89
2023-07-10T05:22:48.348Z,20.67
2023-07-10T05:23:50.056Z,20.49
2023-07-10T05:24:52.643Z,20.36
2023-07-10T05:25:55.964Z,20.30
2023-07-10T05:26:57.607Z,20.12
2023-07-10T05:27:59.341Z,19.94
2023-07-10T05:29:01.094Z,19.29
2023-07-10T05:30:02.799Z,18.64
2023-07-10T05:31:07.747Z,18.34
2023-07-10T05:32:09.956Z,18.54
2023-07-10T05:33:11.741Z,18.81
2023-07-10T05:34:13.372Z,18.95
2023-07-10T05:35:15.249Z,19.16
2023-07-10T05:36:17.402Z,19.51
2023-07-10T05:37:19.066Z,19.80
2023-07-10T05:38:21.810Z,19.93
2023-07-10T05:39:23.482Z,20.09
2023-07-10T05:40:25.190Z,19.84
2023-07-10T05:41:28.563Z,19.99
2023-07-10T05:42:30.250Z,20.10
2023-07-10T05:43:33.224Z,20.22
2023-07-10T05:44:34.897Z,20.24
2023-07-10T05:45:36.710Z,20.24
2023-07-10T05:46:39.817Z,19.96
2023-07-10T05:47:41.657Z,19.30
2023-07-10T05:48:43.278Z,18.70
2023-07-10T05:49:44.959Z,18.90
2023-07-10T05:50:48.121Z,19.16
2023-07-10T05:51:49.767Z,19.33
2023-07-10T05:52:51.400Z,19.41
2023-07-10T05:53:52.960Z,19.46
2023-07-10T05:54:54.610Z,19.58
2023-07-10T05:55:57.533Z,19.71
2023-07-10T05:56:59.501Z,19.70
2023-07-10T05:58:01.203Z,19.01
2023-07-10T05:59:03.083Z,18.57
2023-07-10T06:00:06.198Z,18.80
2023-07-10T06:01:07.945Z,19.03
2023-07-10T06:02:11.737Z,19.23
2023-07-10T06:03:14.695Z,19.36
2023-07-10T06:04:16.714Z,19.51
2023-07-10T06:05:18.327Z,19.66
2023-07-10T06:06:20.284Z,19.74
2023-07-10T06:07:22.046Z,19.18
2023-07-10T06:08:24.409Z,18.63
2023-07-10T06:09:26.029Z,18.95
2023-07-10T06:10:27.724Z,19.20
2023-07-10T06:11:29.411Z,19.40
2023-07-10T06:12:31.048Z,19.56
2023-07-10T06:13:32.968Z,19.69
2023-07-10T06:14:34.633Z,19.82
2023-07-10T06:15:36.248Z,19.89
2023-07-10T06:16:37.960Z,19.95
2023-07-10T06:17:41.004Z,20.00
2023-07-10T06:18:42.592Z,20.07
2023-07-10T06:19:44.306Z,20.14
2023-07-10T06:20:52.526Z,20.12
2023-07-10T06:22:05.493Z,19.88
2023-07-10T06:23:07.429Z,19.78
2023-07-10T06:24:10.103Z,19.64
2023-07-10T06:25:12.285Z,19.36
2023-07-10T06:26:14.089Z,19.10
2023-07-10T06:27:17.140Z,18.91
2023-07-10T06:28:19.824Z,19.22
2023-07-10T06:29:21.468Z,19.35
2023-07-10T06:30:23.797Z,19.53
2023-07-10T06:31:27.047Z,19.67
2023-07-10T06:32:29.038Z,19.79
2023-07-10T06:33:33.177Z,19.83
2023-07-10T06:34:34.908Z,19.89
2023-07-10T06:35:40.421Z,19.96
2023-07-10T06:36:42.370Z,19.95
2023-07-10T06:37:44.938Z,19.99
2023-07-10T06:38:46.493Z,19.97
2023-07-10T06:40:07.591Z,20.04
2023-07-10T06:41:09.369Z,20.14
2023-07-10T06:42:14.927Z,20.24
2023-07-10T06:43:21.782Z,20.36
2023-07-10T06:44:23.414Z,20.45
2023-07-10T06:45:25.146Z,20.55
2023-07-10T06:46:26.951Z,20.57
2023-07-10T06:47:32.209Z,20.67
2023-07-10T06:48:35.268Z,20.76
2023-07-10T06:49:37.136Z,20.85
2023-07-10T06:50:39.083Z,20.88
2023-07-10T06:51:40.757Z,20.89
2023-07-10T06:52:44.296Z,20.99
2023-07-10T06:53:45.963Z,21.09
2023-07-10T06:54:47.791Z,21.18
2023-07-10T06:55:53.194Z,21.28
2023-07-10T06:56:54.812Z,21.36
2023-07-10T06:57:56.418Z,21.40
2023-07-10T06:58:58.027Z,21.44
2023-07-10T07:00:01.228Z,21.54
2023-07-10T07:01:04.365Z,21.64
2023-07-10T07:02:07.859Z,21.66
2023-07-10T07:03:09.787Z,21.71
2023-07-10T07:04:12.957Z,21.75
2023-07-10T07:05:15.088Z,21.79
2023-07-10T07:06:16.902Z,21.81
2023-07-10T07:07:18.733Z,21.82
2023-07-10T07:08:21.253Z,21.78
2023-07-10T07:09:23.313Z,21.78
2023-07-10T07:10:25.042Z,21.83
2023-07-10T07:11:26.820Z,21.89
2023-07-10T07:12:28.603Z,21.92
2023-07-10T07:13:30.240Z,21.98
2023-07-10T07:14:32.349Z,22.05
2023-07-10T07:15:34.072Z,22.11
2023-07-10T07:16:35.919Z,22.20
2023-07-10T07:17:40.778Z,22.27
2023-07-10T07:18:42.552Z,22.29
2023-07-10T07:19:47.002Z,22.31
2023-07-10T07:20:49.575Z,22.32
2023-07-10T07:21:51.239Z,22.27
2023-07-10T07:22:52.934Z,22.30
2023-07-10T07:23:54.797Z,22.31
2023-07-10T07:24:56.418Z,22.34
2023-07-10T07:25:58.690Z,22.38
2023-07-10T07:27:00.333Z,22.39
2023-07-10T07:28:02.076Z,22.42
2023-07-10T07:29:03.971Z,22.44
2023-07-10T07:30:07.747Z,22.44
2023-07-10T07:31:09.393Z,22.44
2023-07-10T07:32:11.852Z,22.44
2023-07-10T07:33:13.680Z,22.36
2023-07-10T07:34:15.280Z,22.30
2023-07-10T07:35:18.431Z,22.17
2023-07-10T07:36:20.113Z,22.14
2023-07-10T07:37:21.870Z,22.22
2023-07-10T07:38:23.670Z,22.33
2023-07-10T07:39:26.137Z,22.46
2023-07-10T07:40:28.121Z,22.59
2023-07-10T07:41:31.103Z,22.69
2023-07-10T07:42:34.318Z,22.76
2023-07-10T07:43:36.043Z,22.86
2023-07-10T07:44:37.882Z,22.96
2023-07-10T07:45:39.594Z,22.96
2023-07-10T07:46:41.192Z,22.96
2023-07-10T07:47:43.395Z,22.94
2023-07-10T07:48:45.210Z,23.08
2023-07-10T07:49:46.945Z,23.23
2023-07-10T07:50:58.340Z,23.30
2023-07-10T07:52:00.369Z,23.37
2023-07-10T07:53:01.982Z,23.40
2023-07-10T07:54:06.848Z,23.51
2023-07-10T07:55:09.209Z,23.59
2023-07-10T07:56:11.465Z,23.52
2023-07-10T07:57:13.254Z,23.54
2023-07-10T07:58:15.042Z,23.66
2023-07-10T07:59:16.838Z,23.72
2023-07-10T08:00:21.674Z,23.86
2023-07-10T08:01:23.956Z,23.96
2023-07-10T08:02:25.554Z,24.00
2023-07-10T08:03:27.687Z,24.16
2023-07-10T08:04:29.465Z,24.29
2023-07-10T08:05:36.007Z,24.43
2023-07-10T08:06:40.812Z,24.55
2023-07-10T08:07:43.442Z,24.34
2023-07-10T08:08:45.591Z,23.99
2023-07-10T08:09:47.507Z,23.85
2023-07-10T08:10:50.755Z,24.07
2023-07-10T08:11:54.196Z,24.30
2023-07-10T08:12:55.857Z,24.44
2023-07-10T08:13:57.598Z,24.52
2023-07-10T08:15:02.598Z,24.61
2023-07-10T08:16:04.905Z,24.72
2023-07-10T08:17:07.479Z,24.81
2023-07-10T08:18:09.635Z,24.89
2023-07-10T08:19:11.215Z,25.02
2023-07-10T08:20:13.325Z,25.16
2023-07-10T08:21:16.397Z,25.23
2023-07-10T08:22:19.461Z,25.34
2023-07-10T08:23:21.051Z,25.45
2023-07-10T08:24:22.690Z,25.45
2023-07-10T08:25:24.395Z,25.51
2023-07-10T08:26:26.233Z,25.57
2023-07-10T08:27:28.085Z,25.67
2023-07-10T08:28:29.712Z,25.76
2023-07-10T08:29:32.630Z,25.77
2023-07-10T08:30:34.334Z,25.83
2023-07-10T08:31:35.985Z,25.94
2023-07-10T08:32:37.811Z,25.98
2023-07-10T08:33:39.401Z,25.99
2023-07-10T08:34:40.994Z,26.05
2023-07-10T08:35:42.661Z,26.02
2023-07-10T08:36:44.272Z,26.07
2023-07-10T08:37:49.045Z,26.20
2023-07-10T08:38:50.665Z,26.32
2023-07-10T08:39:52.882Z,26.40
2023-07-10T08:40:57.622Z,26.47
2023-07-10T08:42:03.192Z,26.16
2023-07-10T08:43:18.147Z,25.20
2023-07-10T08:44:19.987Z,24.63
2023-07-10T08:45:32.886Z,24.40
2023-07-10T08:46:34.679Z,23.94
2023-07-10T08:47:40.272Z,24.11
2023-07-10T08:48:47.612Z,24.44
2023-07-10T08:49:54.136Z,24.73
2023-07-10T08:51:01.628Z,25.16
2023-07-10T08:52:08.015Z,25.39
2023-07-10T08:53:12.857Z,24.34
2023-07-10T08:54:16.737Z,24.37
2023-07-10T08:55:26.660Z,24.60
2023-07-10T08:56:32.006Z,24.75
2023-07-10T08:57:36.478Z,24.66
2023-07-10T08:58:39.369Z,24.27
2023-07-10T08:59:49.167Z,24.57
2023-07-10T09:00:54.814Z,24.28
2023-07-10T09:01:58.051Z,24.48
2023-07-10T09:03:06.206Z,24.36
2023-07-10T09:04:14.167Z,24.32
2023-07-10T09:05:22.017Z,24.34
2023-07-10T09:06:34.177Z,24.88
2023-07-10T09:07:39.957Z,25.26
2023-07-10T09:08:44.062Z,25.59
2023-07-10T09:09:50.453Z,25.80
2023-07-10T09:10:55.511Z,25.68
2023-07-10T09:12:00.005Z,25.91
2023-07-10T09:13:02.420Z,26.19
2023-07-10T09:14:21.500Z,26.47
2023-07-10T09:15:25.042Z,26.76
2023-07-10T09:16:26.697Z,26.90
2023-07-10T09:17:36.963Z,26.48
2023-07-10T09:18:47.599Z,26.67
2023-07-10T09:19:53.965Z,26.94
2023-07-10T09:21:00.273Z,27.16
2023-07-10T09:22:02.061Z,27.32
2023-07-10T09:23:05.582Z,27.29
2023-07-10T09:24:15.196Z,27.36
2023-07-10T09:25:16.981Z,27.41
2023-07-10T09:26:20.611Z,27.49
2023-07-10T09:27:22.264Z,27.59
2023-07-10T09:28:24.928Z,27.71
2023-07-10T09:29:32.137Z,27.87
2023-07-10T09:30:52.486Z,28.04
2023-07-10T09:31:57.632Z,28.20
2023-07-10T09:33:03.536Z,28.34
2023-07-10T09:34:05.447Z,28.28
2023-07-10T09:35:07.440Z,28.28
2023-07-10T09:36:16.951Z,28.36
2023-07-10T09:37:21.062Z,28.25
2023-07-10T09:38:22.794Z,28.11
2023-07-10T09:39:28.328Z,28.29
2023-07-10T09:40:37.793Z,28.48
2023-07-10T09:41:39.501Z,28.49
2023-07-10T09:42:42.308Z,28.37
2023-07-10T09:43:50.593Z,28.43
2023-07-10T09:44:56.794Z,28.60
2023-07-10T09:46:00.185Z,28.57
2023-07-10T09:47:08.126Z,28.71
2023-07-10T09:48:24.661Z,28.70
2023-07-10T09:49:35.310Z,28.42
2023-07-10T09:50:37.173Z,28.60
2023-07-10T09:51:48.256Z,28.83
2023-07-10T09:52:55.331Z,29.06
2023-07-10T09:54:01.711Z,28.68
2023-07-10T09:55:15.283Z,28.56
2023-07-10T09:56:23.067Z,28.61
2023-07-10T09:57:24.714Z,28.72
2023-07-10T09:58:27.267Z,28.89
2023-07-10T09:59:32.817Z,29.04
2023-07-10T10:00:43.401Z,29.02
2023-07-10T10:01:47.841Z,29.10
2023-07-10T10:02:56.337Z,28.86
2023-07-10T10:03:58.475Z,28.89
2023-07-10T10:05:09.332Z,29.03
2023-07-10T10:06:20.937Z,28.84
2023-07-10T10:07:22.806Z,29.05
2023-07-10T10:08:27.396Z,29.25
2023-07-10T10:09:29.605Z,29.26
2023-07-10T10:10:34.232Z,29.28
2023-07-10T10:11:40.192Z,29.42
2023-07-10T10:12:42.282Z,29.50
2023-07-10T10:13:48.575Z,29.22
2023-07-10T10:14:54.141Z,28.94
2023-07-10T10:16:01.154Z,28.42
2023-07-10T10:17:08.033Z,28.88
2023-07-10T10:18:20.460Z,29.23
2023-07-10T10:19:26.456Z,29.52
2023-07-10T10:20:31.233Z,29.51
2023-07-10T10:21:35.680Z,28.79
2023-07-10T10:22:37.293Z,28.77
2023-07-10T10:23:41.104Z,28.92
2023-07-10T10:24:43.273Z,29.16
2023-07-10T10:25:47.722Z,29.35
2023-07-10T10:27:16.959Z,29.09
2023-07-10T10:28:30.568Z,27.96
2023-07-10T10:30:00.411Z,27.66
2023-07-10T10:31:08.336Z,27.59
2023-07-10T10:32:21.742Z,27.56
2023-07-10T10:33:31.022Z,28.26
2023-07-10T10:34:41.612Z,28.58
2023-07-10T10:35:54.618Z,28.69
2023-07-10T10:37:09.568Z,28.48
2023-07-10T10:38:28.901Z,28.18
2023-07-10T10:39:37.583Z,28.05
2023-07-10T10:40:48.590Z,28.33
2023-07-10T10:41:56.275Z,28.39
2023-07-10T10:43:05.445Z,28.27
2023-07-10T10:44:17.372Z,28.63
2023-07-10T10:45:24.988Z,28.64
2023-07-10T10:46:38.078Z,28.19
2023-07-10T10:47:48.906Z,28.42
2023-07-10T10:49:02.772Z,28.31
2023-07-10T10:50:20.041Z,28.37
2023-07-10T10:51:29.792Z,28.30
2023-07-10T10:52:40.203Z,28.46
2023-07-10T10:53:49.909Z,28.71
2023-07-10T10:55:07.503Z,28.59
2023-07-10T10:56:21.965Z,28.68
2023-07-10T10:57:36.273Z,28.94
2023-07-10T10:58:50.894Z,29.00
2023-07-10T11:00:02.597Z,29.24
2023-07-10T11:01:32.834Z,29.80
2023-07-10T11:02:53.628Z,29.92
2023-07-10T11:04:00.933Z,28.87
2023-07-10T11:05:13.642Z,29.32
2023-07-10T11:06:34.264Z,28.64
2023-07-10T11:07:38.591Z,29.00
2023-07-10T11:08:45.757Z,29.32
2023-07-10T11:09:51.164Z,29.50
2023-07-10T11:10:54.818Z,29.06
2023-07-10T11:11:58.622Z,29.40
2023-07-10T11:13:04.417Z,29.91
2023-07-10T11:14:06.359Z,30.15
2023-07-10T11:15:17.408Z,30.05
2023-07-10T11:16:21.963Z,29.56
2023-07-10T11:17:24.427Z,29.59
2023-07-10T11:18:26.623Z,29.18
2023-07-10T11:19:31.331Z,28.81
2023-07-10T11:20:33.445Z,29.25
2023-07-10T11:21:35.097Z,29.19
2023-07-10T11:22:36.685Z,29.68
2023-07-10T11:23:47.302Z,29.75
2023-07-10T11:24:50.604Z,29.41
2023-07-10T11:26:00.189Z,29.52
2023-07-10T11:27:11.264Z,29.34
2023-07-10T11:28:22.692Z,29.52
2023-07-10T11:29:40.054Z,29.33
2023-07-10T11:30:41.654Z,29.42
2023-07-10T11:31:44.007Z,29.44
2023-07-10T11:32:58.094Z,29.67
2023-07-10T11:34:42.231Z,29.85
2023-07-10T11:36:11.897Z,29.83
2023-07-10T11:37:35.046Z,30.07
2023-07-10T11:38:36.958Z,29.64
2023-07-10T11:39:38.668Z,29.53
2023-07-10T11:41:02.563Z,29.96
2023-07-10T11:42:16.905Z,29.91
2023-07-10T11:43:52.725Z,29.72
2023-07-10T11:44:59.776Z,29.48
2023-07-10T11:46:05.533Z,29.67
2023-07-10T11:47:35.710Z,29.52
2023-07-10T11:48:39.020Z,29.81
2023-07-10T11:49:46.382Z,30.10
2023-07-10T11:50:49.609Z,29.62
2023-07-10T11:52:26.521Z,29.53
2023-07-10T11:53:28.116Z,29.44
2023-07-10T11:54:40.124Z,29.67
2023-07-10T11:55:58.177Z,29.50
2023-07-10T11:57:10.941Z,29.49
2023-07-10T11:58:25.166Z,29.64
2023-07-10T11:59:28.067Z,30.05
2023-07-10T12:00:31.658Z,30.17
2023-07-10T12:01:34.401Z,30.04
2023-07-10T12:02:43.259Z,30.13
2023-07-10T12:03:46.093Z,30.14
2023-07-10T12:04:47.929Z,29.63
2023-07-10T12:05:49.530Z,29.56
2023-07-10T12:06:51.223Z,29.36
2023-07-10T12:08:00.572Z,28.78
2023-07-10T12:09:04.829Z,29.12
2023-07-10T12:10:12.103Z,29.48
2023-07-10T12:11:28.341Z,29.80
2023-07-10T12:12:32.649Z,30.18
2023-07-10T12:13:37.866Z,30.40
2023-07-10T12:14:40.955Z,30.71
2023-07-10T12:15:43.149Z,31.19
2023-07-10T12:17:07.398Z,31.09
2023-07-10T12:18:15.941Z,30.91
2023-07-10T12:19:21.654Z,30.23
2023-07-10T12:20:28.301Z,30.28
2023-07-10T12:21:31.676Z,30.32
2023-07-10T12:22:37.555Z,30.26
2023-07-10T12:23:39.216Z,30.43
2023-07-10T12:24:50.709Z,30.39
2023-07-10T12:25:54.406Z,30.56
2023-07-10T12:28:26.007Z,30.62
2023-07-10T12:29:29.782Z,29.72
2023-07-10T12:30:33.510Z,29.20
2023-07-10T12:31:38.288Z,28.88
2023-07-10T12:32:40.164Z,28.76
2023-07-10T12:33:46.347Z,29.08
2023-07-10T12:34:48.412Z,28.43
2023-07-10T12:35:50.817Z,28.46
2023-07-10T12:36:55.213Z,28.70
2023-07-10T12:37:59.883Z,29.15
2023-07-10T12:39:04.933Z,29.12
2023-07-10T12:40:14.532Z,28.90
2023-07-10T12:41:18.932Z,28.71
2023-07-10T12:42:33.602Z,28.54
2023-07-10T12:43:35.353Z,28.11
2023-07-10T12:44:44.490Z,28.09
2023-07-10T12:45:47.548Z,27.93
2023-07-10T12:46:54.758Z,27.96
2023-07-10T12:48:03.647Z,27.87
2023-07-10T12:49:11.851Z,28.25
2023-07-10T12:50:13.607Z,28.33
2023-07-10T12:51:21.574Z,29.02
2023-07-10T12:52:25.938Z,29.50
2023-07-10T12:53:33.460Z,29.84
2023-07-10T12:54:41.154Z,28.75
2023-07-10T12:55:47.440Z,28.67
2023-07-10T12:56:53.742Z,28.36
2023-07-10T12:58:02.275Z,28.35
2023-07-10T12:59:17.884Z,28.30
2023-07-10T13:00:20.437Z,28.31
2023-07-10T13:01:26.543Z,28.58
2023-07-10T13:02:36.214Z,28.90
2023-07-10T13:03:38.178Z,28.35
2023-07-10T13:04:41.915Z,28.28
2023-07-10T13:05:52.793Z,28.28
2023-07-10T13:07:12.511Z,28.72
2023-07-10T13:08:32.858Z,28.77
2023-07-10T13:09:34.513Z,29.10
2023-07-10T13:10:42.305Z,29.48
2023-07-10T13:11:44.737Z,29.46
2023-07-10T13:12:48.289Z,29.13
2023-07-10T13:13:51.335Z,29.08
2023-07-10T13:15:00.118Z,29.41
2023-07-10T13:16:04.540Z,29.58
2023-07-10T13:17:12.031Z,29.28
2023-07-10T13:18:24.411Z,29.21
2023-07-10T13:19:26.515Z,28.96
2023-07-10T13:20:29.932Z,28.52
2023-07-10T13:21:31.550Z,28.55
2023-07-10T13:22:33.218Z,28.48
2023-07-10T13:23:34.981Z,28.13
2023-07-10T13:24:37.070Z,27.87
2023-07-10T13:25:38.714Z,27.72
2023-07-10T13:26:44.290Z,27.16
2023-07-10T13:27:45.884Z,27.28
2023-07-10T13:28:50.220Z,27.48
2023-07-10T13:29:52.024Z,27.54
2023-07-10T13:30:54.574Z,27.70
2023-07-10T13:31:56.467Z,27.52
2023-07-10T13:32:59.495Z,27.46
2023-07-10T13:34:04.415Z,27.06
2023-07-10T13:35:10.033Z,26.72
2023-07-10T13:36:19.987Z,26.95
2023-07-10T13:37:26.383Z,26.74
2023-07-10T13:38:28.801Z,26.85
2023-07-10T13:39:30.389Z,27.05
2023-07-10T13:40:31.968Z,27.33
2023-07-10T13:41:33.536Z,27.33
2023-07-10T13:42:35.155Z,27.37
2023-07-10T13:43:36.899Z,27.60
2023-07-10T13:44:38.501Z,27.80
2023-07-10T13:45:40.197Z,28.27
2023-07-10T13:46:42.338Z,27.85
2023-07-10T13:47:45.833Z,27.69
2023-07-10T13:48:49.441Z,27.10
2023-07-10T13:49:53.236Z,26.59
2023-07-10T13:50:57.886Z,26.41
2023-07-10T13:52:00.896Z,26.04
2023-07-10T13:53:02.677Z,26.15